sensor_id;sensor_type;location;lat;lon;timestamp;temperature;humidity
11840;DHT22;5979;50.800;4.904;2022-09-13T00:02:13;18.00;99.90
11840;DHT22;5979;50.800;4.904;2022-09-13T00:04:38;17.90;99.90
11840;DHT22;5979;50.800;4.904;2022-09-13T00:07:04;17.90;99.90
11840;DHT22;5979;50.800;4.904;2022-09-13T00:09:30;17.80;99.90
11840;DHT22;5979;50.800;4.904;2022-09-13T00:11:55;17.80;99.90
11840;DHT22;5979;50.800;4.904;2022-09-13T00:14:21;17.70;99.90
11840;DHT22;5979;50.800;4.904;2022-09-13T00:16:46;17.70;99.90
11840;DHT22;5979;50.800;4.904;2022-09-13T00:19:12;17.70;99.90
11840;DHT22;5979;50.800;4.904;2022-09-13T00:21:38;17.60;99.90
11840;DHT22;5979;50.800;4.904;2022-09-13T00:24:04;17.60;99.90
11840;DHT22;5979;50.800;4.904;2022-09-13T00:26:29;17.60;99.90
11840;DHT22;5979;50.800;4.904;2022-09-13T00:28:57;17.60;99.90
11840;DHT22;5979;50.800;4.904;2022-09-13T00:31:24;17.60;99.90
11840;DHT22;5979;50.800;4.904;2022-09-13T00:33:51;17.60;99.90
11840;DHT22;5979;50.800;4.904;2022-09-13T00:36:16;17.60;99.90
11840;DHT22;5979;50.800;4.904;2022-09-13T00:38:42;17.60;99.90
11840;DHT22;5979;50.800;4.904;2022-09-13T00:41:12;17.50;99.90
11840;DHT22;5979;50.800;4.904;2022-09-13T00:51:56;17.50;99.90
11840;DHT22;5979;50.800;4.904;2022-09-13T00:54:26;17.60;99.90
11840;DHT22;5979;50.800;4.904;2022-09-13T00:56:56;17.60;99.90
11840;DHT22;5979;50.800;4.904;2022-09-13T00:59:34;17.60;99.90
11840;DHT22;5979;50.800;4.904;2022-09-13T01:02:02;17.60;99.90
11840;DHT22;5979;50.800;4.904;2022-09-13T01:04:29;17.60;99.90
11840;DHT22;5979;50.800;4.904;2022-09-13T01:07:02;17.70;99.90
11840;DHT22;5979;50.800;4.904;2022-09-13T01:09:29;17.70;99.90
11840;DHT22;5979;50.800;4.904;2022-09-13T01:12:04;17.70;99.90
11840;DHT22;5979;50.800;4.904;2022-09-13T01:14:33;17.80;99.90
11840;DHT22;5979;50.800;4.904;2022-09-13T01:16:59;17.80;99.90
11840;DHT22;5979;50.800;4.904;2022-09-13T01:19:25;17.80;99.90
11840;DHT22;5979;50.800;4.904;2022-09-13T01:25:18;17.80;99.90
11840;DHT22;5979;50.800;4.904;2022-09-13T01:30:40;17.80;99.90
11840;DHT22;5979;50.800;4.904;2022-09-13T01:38:57;17.90;99.90
11840;DHT22;5979;50.800;4.904;2022-09-13T01:47:07;17.90;99.90
11840;DHT22;5979;50.800;4.904;2022-09-13T01:52:28;17.90;99.90
11840;DHT22;5979;50.800;4.904;2022-09-13T01:55:10;17.90;99.90
11840;DHT22;5979;50.800;4.904;2022-09-13T01:58:21;17.80;99.90
11840;DHT22;5979;50.800;4.904;2022-09-13T02:01:18;17.90;99.90
11840;DHT22;5979;50.800;4.904;2022-09-13T02:03:48;17.90;99.90
11840;DHT22;5979;50.800;4.904;2022-09-13T02:06:21;17.90;99.90
11840;DHT22;5979;50.800;4.904;2022-09-13T02:09:08;17.90;99.90
11840;DHT22;5979;50.800;4.904;2022-09-13T02:11:37;17.90;99.90
11840;DHT22;5979;50.800;4.904;2022-09-13T02:14:12;18.00;99.90
11840;DHT22;5979;50.800;4.904;2022-09-13T02:16:42;18.00;99.90
11840;DHT22;5979;50.800;4.904;2022-09-13T02:19:25;18.00;99.90
11840;DHT22;5979;50.800;4.904;2022-09-13T02:21:57;17.90;99.90
11840;DHT22;5979;50.800;4.904;2022-09-13T02:24:47;18.00;99.90
11840;DHT22;5979;50.800;4.904;2022-09-13T02:27:19;18.00;99.90
11840;DHT22;5979;50.800;4.904;2022-09-13T02:29:47;18.00;99.90
11840;DHT22;5979;50.800;4.904;2022-09-13T02:32:22;18.00;99.90
11840;DHT22;5979;50.800;4.904;2022-09-13T02:35:11;18.00;99.90
11840;DHT22;5979;50.800;4.904;2022-09-13T02:37:40;18.00;99.90
11840;DHT22;5979;50.800;4.904;2022-09-13T02:40:13;18.00;99.90
11840;DHT22;5979;50.800;4.904;2022-09-13T02:42:49;18.00;99.90
11840;DHT22;5979;50.800;4.904;2022-09-13T02:45:17;18.00;99.90
11840;DHT22;5979;50.800;4.904;2022-09-13T02:47:58;18.00;99.90
11840;DHT22;5979;50.800;4.904;2022-09-13T02:53:18;18.00;99.90
11840;DHT22;5979;50.800;4.904;2022-09-13T02:55:52;18.00;99.90
11840;DHT22;5979;50.800;4.904;2022-09-13T03:01:10;17.90;99.90
11840;DHT22;5979;50.800;4.904;2022-09-13T03:03:35;17.90;99.90
11840;DHT22;5979;50.800;4.904;2022-09-13T03:06:01;17.90;99.90
11840;DHT22;5979;50.800;4.904;2022-09-13T03:08:28;17.90;99.90
11840;DHT22;5979;50.800;4.904;2022-09-13T03:21:48;17.90;99.90
11840;DHT22;5979;50.800;4.904;2022-09-13T03:24:21;17.90;99.90
11840;DHT22;5979;50.800;4.904;2022-09-13T03:26:52;17.90;99.90
11840;DHT22;5979;50.800;4.904;2022-09-13T03:29:34;18.00;99.90
11840;DHT22;5979;50.800;4.904;2022-09-13T03:35:16;18.00;99.90
11840;DHT22;5979;50.800;4.904;2022-09-13T03:40:15;18.00;99.90
11840;DHT22;5979;50.800;4.904;2022-09-13T03:42:52;18.00;99.90
11840;DHT22;5979;50.800;4.904;2022-09-13T03:45:24;18.00;99.90
11840;DHT22;5979;50.800;4.904;2022-09-13T03:47:51;18.00;99.90
11840;DHT22;5979;50.800;4.904;2022-09-13T03:50:22;18.00;99.90
11840;DHT22;5979;50.800;4.904;2022-09-13T03:52:57;18.00;99.90
11840;DHT22;5979;50.800;4.904;2022-09-13T03:55:24;18.00;99.90
11840;DHT22;5979;50.800;4.904;2022-09-13T03:57:50;18.00;99.90
11840;DHT22;5979;50.800;4.904;2022-09-13T04:00:16;18.00;99.90
11840;DHT22;5979;50.800;4.904;2022-09-13T04:02:43;18.10;99.90
11840;DHT22;5979;50.800;4.904;2022-09-13T04:05:09;18.10;99.90
11840;DHT22;5979;50.800;4.904;2022-09-13T04:07:34;18.10;99.90
11840;DHT22;5979;50.800;4.904;2022-09-13T04:10:00;18.10;99.90
11840;DHT22;5979;50.800;4.904;2022-09-13T04:12:26;18.10;99.90
11840;DHT22;5979;50.800;4.904;2022-09-13T04:14:55;18.10;99.90
11840;DHT22;5979;50.800;4.904;2022-09-13T04:17:21;18.10;99.90
11840;DHT22;5979;50.800;4.904;2022-09-13T04:19:47;18.10;99.90
11840;DHT22;5979;50.800;4.904;2022-09-13T04:22:12;18.10;99.90
11840;DHT22;5979;50.800;4.904;2022-09-13T04:24:38;18.10;99.90
11840;DHT22;5979;50.800;4.904;2022-09-13T04:27:05;18.10;99.90
11840;DHT22;5979;50.800;4.904;2022-09-13T04:29:31;18.10;99.90
11840;DHT22;5979;50.800;4.904;2022-09-13T04:31:58;18.10;99.90
11840;DHT22;5979;50.800;4.904;2022-09-13T04:34:24;18.10;99.90
11840;DHT22;5979;50.800;4.904;2022-09-13T04:36:51;18.10;99.90
11840;DHT22;5979;50.800;4.904;2022-09-13T04:39:18;18.10;99.90
11840;DHT22;5979;50.800;4.904;2022-09-13T04:41:45;18.10;99.90
11840;DHT22;5979;50.800;4.904;2022-09-13T04:44:13;18.10;99.90
11840;DHT22;5979;50.800;4.904;2022-09-13T04:46:39;18.10;99.90
11840;DHT22;5979;50.800;4.904;2022-09-13T04:49:06;18.10;99.90
11840;DHT22;5979;50.800;4.904;2022-09-13T04:51:32;18.10;99.90
11840;DHT22;5979;50.800;4.904;2022-09-13T04:53:57;18.10;99.90
11840;DHT22;5979;50.800;4.904;2022-09-13T04:56:25;18.10;99.90
11840;DHT22;5979;50.800;4.904;2022-09-13T04:58:51;18.00;99.90
11840;DHT22;5979;50.800;4.904;2022-09-13T05:01:17;18.00;99.90
11840;DHT22;5979;50.800;4.904;2022-09-13T05:03:43;18.00;99.90
11840;DHT22;5979;50.800;4.904;2022-09-13T05:06:10;18.00;99.90
11840;DHT22;5979;50.800;4.904;2022-09-13T05:08:37;17.90;99.90
11840;DHT22;5979;50.800;4.904;2022-09-13T05:11:03;17.90;99.90
11840;DHT22;5979;50.800;4.904;2022-09-13T05:13:29;18.00;99.90
11840;DHT22;5979;50.800;4.904;2022-09-13T05:15:56;18.00;99.90
11840;DHT22;5979;50.800;4.904;2022-09-13T05:18:25;18.00;99.90
11840;DHT22;5979;50.800;4.904;2022-09-13T05:20:53;18.00;99.90
11840;DHT22;5979;50.800;4.904;2022-09-13T05:23:20;18.00;99.90
11840;DHT22;5979;50.800;4.904;2022-09-13T05:25:54;18.00;99.90
11840;DHT22;5979;50.800;4.904;2022-09-13T05:28:21;18.00;99.90
11840;DHT22;5979;50.800;4.904;2022-09-13T05:31:24;18.00;99.90
11840;DHT22;5979;50.800;4.904;2022-09-13T05:34:13;18.10;99.90
11840;DHT22;5979;50.800;4.904;2022-09-13T05:36:40;18.10;99.90
11840;DHT22;5979;50.800;4.904;2022-09-13T05:39:08;18.10;99.90
11840;DHT22;5979;50.800;4.904;2022-09-13T05:41:36;18.10;99.90
11840;DHT22;5979;50.800;4.904;2022-09-13T05:44:02;18.10;99.90
11840;DHT22;5979;50.800;4.904;2022-09-13T05:46:27;18.10;99.90
11840;DHT22;5979;50.800;4.904;2022-09-13T05:48:56;18.10;99.90
11840;DHT22;5979;50.800;4.904;2022-09-13T05:51:22;18.10;99.90
11840;DHT22;5979;50.800;4.904;2022-09-13T05:53:50;18.20;99.90
11840;DHT22;5979;50.800;4.904;2022-09-13T05:56:20;18.20;99.90
11840;DHT22;5979;50.800;4.904;2022-09-13T05:58:47;18.20;99.90
11840;DHT22;5979;50.800;4.904;2022-09-13T06:01:15;18.20;99.90
11840;DHT22;5979;50.800;4.904;2022-09-13T06:03:41;18.20;99.90
11840;DHT22;5979;50.800;4.904;2022-09-13T06:06:09;18.30;99.90
11840;DHT22;5979;50.800;4.904;2022-09-13T06:08:35;18.30;99.90
11840;DHT22;5979;50.800;4.904;2022-09-13T06:11:02;18.30;99.90
11840;DHT22;5979;50.800;4.904;2022-09-13T06:13:28;18.40;99.90
11840;DHT22;5979;50.800;4.904;2022-09-13T06:15:55;18.40;99.90
11840;DHT22;5979;50.800;4.904;2022-09-13T06:18:22;18.40;99.90
11840;DHT22;5979;50.800;4.904;2022-09-13T06:20:49;18.40;99.90
11840;DHT22;5979;50.800;4.904;2022-09-13T06:23:15;18.50;99.90
11840;DHT22;5979;50.800;4.904;2022-09-13T06:25:41;18.50;99.90
11840;DHT22;5979;50.800;4.904;2022-09-13T06:28:07;18.50;99.90
11840;DHT22;5979;50.800;4.904;2022-09-13T06:30:34;18.60;99.90
11840;DHT22;5979;50.800;4.904;2022-09-13T06:33:00;18.60;99.90
11840;DHT22;5979;50.800;4.904;2022-09-13T06:35:26;18.60;99.90
11840;DHT22;5979;50.800;4.904;2022-09-13T06:37:55;18.70;99.90
11840;DHT22;5979;50.800;4.904;2022-09-13T06:40:22;18.70;99.90
11840;DHT22;5979;50.800;4.904;2022-09-13T06:42:48;18.70;99.90
11840;DHT22;5979;50.800;4.904;2022-09-13T06:45:13;18.80;99.90
11840;DHT22;5979;50.800;4.904;2022-09-13T06:47:39;18.80;99.90
11840;DHT22;5979;50.800;4.904;2022-09-13T06:50:05;18.80;99.90
11840;DHT22;5979;50.800;4.904;2022-09-13T06:52:32;18.90;99.90
11840;DHT22;5979;50.800;4.904;2022-09-13T06:54:58;18.90;99.90
11840;DHT22;5979;50.800;4.904;2022-09-13T06:57:24;18.90;99.90
11840;DHT22;5979;50.800;4.904;2022-09-13T06:59:50;19.00;99.90
11840;DHT22;5979;50.800;4.904;2022-09-13T07:02:16;19.10;99.90
11840;DHT22;5979;50.800;4.904;2022-09-13T07:04:41;19.10;99.90
11840;DHT22;5979;50.800;4.904;2022-09-13T07:07:07;19.20;99.90
11840;DHT22;5979;50.800;4.904;2022-09-13T07:09:32;19.20;99.90
11840;DHT22;5979;50.800;4.904;2022-09-13T07:11:59;19.30;99.90
11840;DHT22;5979;50.800;4.904;2022-09-13T07:14:26;19.40;99.90
11840;DHT22;5979;50.800;4.904;2022-09-13T07:16:53;19.50;99.90
11840;DHT22;5979;50.800;4.904;2022-09-13T07:19:24;19.60;99.90
11840;DHT22;5979;50.800;4.904;2022-09-13T07:21:51;19.60;99.90
11840;DHT22;5979;50.800;4.904;2022-09-13T07:24:18;19.80;99.90
11840;DHT22;5979;50.800;4.904;2022-09-13T07:26:44;19.90;99.90
11840;DHT22;5979;50.800;4.904;2022-09-13T07:29:13;20.00;99.90
11840;DHT22;5979;50.800;4.904;2022-09-13T07:31:45;20.10;99.90
11840;DHT22;5979;50.800;4.904;2022-09-13T07:34:19;20.30;99.90
11840;DHT22;5979;50.800;4.904;2022-09-13T07:36:45;20.40;99.90
11840;DHT22;5979;50.800;4.904;2022-09-13T07:39:12;20.60;99.90
11840;DHT22;5979;50.800;4.904;2022-09-13T07:41:38;20.80;99.90
11840;DHT22;5979;50.800;4.904;2022-09-13T07:44:04;21.00;99.90
11840;DHT22;5979;50.800;4.904;2022-09-13T07:46:34;21.10;99.90
11840;DHT22;5979;50.800;4.904;2022-09-13T07:49:09;21.40;99.90
11840;DHT22;5979;50.800;4.904;2022-09-13T07:51:37;21.60;99.90
11840;DHT22;5979;50.800;4.904;2022-09-13T07:54:06;21.70;99.90
11840;DHT22;5979;50.800;4.904;2022-09-13T07:56:34;21.80;99.90
11840;DHT22;5979;50.800;4.904;2022-09-13T07:59:02;21.90;99.90
11840;DHT22;5979;50.800;4.904;2022-09-13T08:01:37;22.00;99.90
11840;DHT22;5979;50.800;4.904;2022-09-13T08:04:05;22.00;99.90
11840;DHT22;5979;50.800;4.904;2022-09-13T08:06:33;22.10;99.90
11840;DHT22;5979;50.800;4.904;2022-09-13T08:08:58;22.20;99.90
11840;DHT22;5979;50.800;4.904;2022-09-13T08:11:37;22.30;99.90
11840;DHT22;5979;50.800;4.904;2022-09-13T08:14:05;22.50;99.90
11840;DHT22;5979;50.800;4.904;2022-09-13T08:16:31;22.70;99.90
11840;DHT22;5979;50.800;4.904;2022-09-13T08:19:00;23.00;99.90
11840;DHT22;5979;50.800;4.904;2022-09-13T08:21:34;23.20;99.90
11840;DHT22;5979;50.800;4.904;2022-09-13T08:24:01;23.40;99.90
11840;DHT22;5979;50.800;4.904;2022-09-13T08:26:28;23.60;99.90
11840;DHT22;5979;50.800;4.904;2022-09-13T08:28:56;23.70;99.90
11840;DHT22;5979;50.800;4.904;2022-09-13T08:31:22;23.80;99.90
11840;DHT22;5979;50.800;4.904;2022-09-13T08:33:48;23.90;99.90
11840;DHT22;5979;50.800;4.904;2022-09-13T08:36:15;24.10;99.90
11840;DHT22;5979;50.800;4.904;2022-09-13T08:38:46;24.30;99.90
11840;DHT22;5979;50.800;4.904;2022-09-13T08:46:51;24.50;99.90
11840;DHT22;5979;50.800;4.904;2022-09-13T08:49:00;24.50;99.90
11840;DHT22;5979;50.800;4.904;2022-09-13T08:54:13;24.50;99.90
11840;DHT22;5979;50.800;4.904;2022-09-13T08:57:38;24.40;99.90
11840;DHT22;5979;50.800;4.904;2022-09-13T09:03:09;24.20;99.90
11840;DHT22;5979;50.800;4.904;2022-09-13T09:05:48;24.20;99.90
11840;DHT22;5979;50.800;4.904;2022-09-13T09:14:11;24.00;99.90
11840;DHT22;5979;50.800;4.904;2022-09-13T09:16:44;24.00;99.90
11840;DHT22;5979;50.800;4.904;2022-09-13T09:19:35;24.00;99.90
11840;DHT22;5979;50.800;4.904;2022-09-13T09:22:04;23.90;99.90
11840;DHT22;5979;50.800;4.904;2022-09-13T09:24:34;23.80;99.90
11840;DHT22;5979;50.800;4.904;2022-09-13T09:27:15;23.70;99.90
11840;DHT22;5979;50.800;4.904;2022-09-13T09:29:41;23.80;99.90
11840;DHT22;5979;50.800;4.904;2022-09-13T09:32:45;23.90;99.90
11840;DHT22;5979;50.800;4.904;2022-09-13T09:40:48;24.10;99.90
11840;DHT22;5979;50.800;4.904;2022-09-13T09:43:31;24.30;99.90
11840;DHT22;5979;50.800;4.904;2022-09-13T09:46:00;24.40;99.90
11840;DHT22;5979;50.800;4.904;2022-09-13T09:48:33;24.60;99.90
11840;DHT22;5979;50.800;4.904;2022-09-13T09:51:04;24.70;99.90
11840;DHT22;5979;50.800;4.904;2022-09-13T09:53:37;24.90;99.90
11840;DHT22;5979;50.800;4.904;2022-09-13T09:56:23;25.00;99.90
11840;DHT22;5979;50.800;4.904;2022-09-13T09:58:50;25.10;99.90
11840;DHT22;5979;50.800;4.904;2022-09-13T10:01:29;25.00;99.90
11840;DHT22;5979;50.800;4.904;2022-09-13T10:06:38;24.60;99.90
11840;DHT22;5979;50.800;4.904;2022-09-13T10:09:21;24.50;99.90
11840;DHT22;5979;50.800;4.904;2022-09-13T10:11:57;24.40;99.90
11840;DHT22;5979;50.800;4.904;2022-09-13T10:14:42;24.40;99.90
11840;DHT22;5979;50.800;4.904;2022-09-13T10:17:36;24.50;99.90
11840;DHT22;5979;50.800;4.904;2022-09-13T10:22:39;25.10;99.90
11840;DHT22;5979;50.800;4.904;2022-09-13T10:25:25;25.20;99.90
11840;DHT22;5979;50.800;4.904;2022-09-13T10:27:57;25.30;99.90
11840;DHT22;5979;50.800;4.904;2022-09-13T10:32:56;25.30;99.90
11840;DHT22;5979;50.800;4.904;2022-09-13T10:35:23;25.20;99.90
11840;DHT22;5979;50.800;4.904;2022-09-13T10:37:50;25.00;99.90
11840;DHT22;5979;50.800;4.904;2022-09-13T10:42:53;24.90;99.90
11840;DHT22;5979;50.800;4.904;2022-09-13T10:45:23;24.90;99.90
11840;DHT22;5979;50.800;4.904;2022-09-13T10:47:54;24.80;99.90
11840;DHT22;5979;50.800;4.904;2022-09-13T10:50:26;24.90;99.90
11840;DHT22;5979;50.800;4.904;2022-09-13T10:52:54;24.80;99.90
11840;DHT22;5979;50.800;4.904;2022-09-13T10:55:31;24.80;99.90
11840;DHT22;5979;50.800;4.904;2022-09-13T11:03:45;25.00;99.90
11840;DHT22;5979;50.800;4.904;2022-09-13T11:09:43;25.20;99.90
11840;DHT22;5979;50.800;4.904;2022-09-13T11:12:21;25.30;99.90
11840;DHT22;5979;50.800;4.904;2022-09-13T11:20:46;25.20;99.90
11840;DHT22;5979;50.800;4.904;2022-09-13T11:34:37;25.10;99.90
11840;DHT22;5979;50.800;4.904;2022-09-13T11:39:59;25.30;99.90
11840;DHT22;5979;50.800;4.904;2022-09-13T11:42:38;25.40;99.90
11840;DHT22;5979;50.800;4.904;2022-09-13T11:54:09;25.80;99.90
11840;DHT22;5979;50.800;4.904;2022-09-13T11:56:45;26.00;99.90
11840;DHT22;5979;50.800;4.904;2022-09-13T11:59:37;26.10;99.90
11840;DHT22;5979;50.800;4.904;2022-09-13T12:05:18;26.30;99.90
11840;DHT22;5979;50.800;4.904;2022-09-13T12:07:58;26.40;99.90
11840;DHT22;5979;50.800;4.904;2022-09-13T12:13:22;26.40;99.90
11840;DHT22;5979;50.800;4.904;2022-09-13T12:15:54;26.40;99.90
11840;DHT22;5979;50.800;4.904;2022-09-13T12:20:53;26.30;99.90
11840;DHT22;5979;50.800;4.904;2022-09-13T12:23:34;26.20;99.90
11840;DHT22;5979;50.800;4.904;2022-09-13T12:26:12;26.20;99.90
11840;DHT22;5979;50.800;4.904;2022-09-13T12:28:43;26.10;99.90
11840;DHT22;5979;50.800;4.904;2022-09-13T12:31:14;26.10;99.90
11840;DHT22;5979;50.800;4.904;2022-09-13T12:33:41;26.20;99.90
11840;DHT22;5979;50.800;4.904;2022-09-13T12:37:21;26.20;99.90
11840;DHT22;5979;50.800;4.904;2022-09-13T12:39:37;26.20;99.90
11840;DHT22;5979;50.800;4.904;2022-09-13T12:45:11;26.20;99.90
11840;DHT22;5979;50.800;4.904;2022-09-13T12:50:26;25.90;99.90
11840;DHT22;5979;50.800;4.904;2022-09-13T13:01:35;25.10;99.90
11840;DHT22;5979;50.800;4.904;2022-09-13T13:04:03;25.10;99.90
11840;DHT22;5979;50.800;4.904;2022-09-13T13:06:46;25.10;99.90
11840;DHT22;5979;50.800;4.904;2022-09-13T13:12:03;25.00;99.90
11840;DHT22;5979;50.800;4.904;2022-09-13T13:19:58;25.10;99.90
11840;DHT22;5979;50.800;4.904;2022-09-13T13:27:56;25.40;99.90
11840;DHT22;5979;50.800;4.904;2022-09-13T13:30:41;25.40;99.90
11840;DHT22;5979;50.800;4.904;2022-09-13T13:33:21;25.40;99.90
11840;DHT22;5979;50.800;4.904;2022-09-13T13:35:47;25.40;99.90
11840;DHT22;5979;50.800;4.904;2022-09-13T13:46:53;25.20;99.90
11840;DHT22;5979;50.800;4.904;2022-09-13T14:13:41;24.90;99.90
11840;DHT22;5979;50.800;4.904;2022-09-13T14:19:09;24.90;99.90
11840;DHT22;5979;50.800;4.904;2022-09-13T14:21:40;24.80;99.90
11840;DHT22;5979;50.800;4.904;2022-09-13T14:24:18;24.70;99.90
11840;DHT22;5979;50.800;4.904;2022-09-13T14:26:46;24.70;99.90
11840;DHT22;5979;50.800;4.904;2022-09-13T14:29:16;24.60;99.90
11840;DHT22;5979;50.800;4.904;2022-09-13T14:31:48;24.60;99.90
11840;DHT22;5979;50.800;4.904;2022-09-13T14:36:54;24.50;99.90
11840;DHT22;5979;50.800;4.904;2022-09-13T14:39:20;24.50;99.90
11840;DHT22;5979;50.800;4.904;2022-09-13T14:41:46;24.40;99.90
11840;DHT22;5979;50.800;4.904;2022-09-13T14:44:22;24.30;99.90
11840;DHT22;5979;50.800;4.904;2022-09-13T14:47:18;24.30;99.90
11840;DHT22;5979;50.800;4.904;2022-09-13T14:49:58;24.20;99.90
11840;DHT22;5979;50.800;4.904;2022-09-13T14:52:29;24.10;99.90
11840;DHT22;5979;50.800;4.904;2022-09-13T14:55:01;24.00;99.90
11840;DHT22;5979;50.800;4.904;2022-09-13T14:57:33;23.90;99.90
11840;DHT22;5979;50.800;4.904;2022-09-13T15:00:04;23.90;99.90
11840;DHT22;5979;50.800;4.904;2022-09-13T15:02:37;23.80;99.90
11840;DHT22;5979;50.800;4.904;2022-09-13T15:05:07;23.70;99.90
11840;DHT22;5979;50.800;4.904;2022-09-13T15:07:38;23.70;99.90
11840;DHT22;5979;50.800;4.904;2022-09-13T15:17:58;23.40;99.90
11840;DHT22;5979;50.800;4.904;2022-09-13T15:20:26;23.40;99.90
11840;DHT22;5979;50.800;4.904;2022-09-13T15:22:53;23.30;99.90
11840;DHT22;5979;50.800;4.904;2022-09-13T15:25:27;23.20;99.90
11840;DHT22;5979;50.800;4.904;2022-09-13T15:27:55;23.20;99.90
11840;DHT22;5979;50.800;4.904;2022-09-13T15:30:36;23.10;99.90
11840;DHT22;5979;50.800;4.904;2022-09-13T15:35:50;23.00;99.90
11840;DHT22;5979;50.800;4.904;2022-09-13T15:38:30;23.00;99.90
11840;DHT22;5979;50.800;4.904;2022-09-13T15:41:18;22.90;99.90
11840;DHT22;5979;50.800;4.904;2022-09-13T15:43:46;22.90;99.90
11840;DHT22;5979;50.800;4.904;2022-09-13T15:46:15;22.90;99.90
11840;DHT22;5979;50.800;4.904;2022-09-13T15:48:51;22.80;99.90
11840;DHT22;5979;50.800;4.904;2022-09-13T15:51:17;22.80;99.90
11840;DHT22;5979;50.800;4.904;2022-09-13T15:53:44;22.60;99.90
11840;DHT22;5979;50.800;4.904;2022-09-13T15:56:17;22.60;99.90
11840;DHT22;5979;50.800;4.904;2022-09-13T15:58:43;22.60;99.90
11840;DHT22;5979;50.800;4.904;2022-09-13T16:01:13;22.50;99.90
11840;DHT22;5979;50.800;4.904;2022-09-13T16:03:40;22.50;99.90
11840;DHT22;5979;50.800;4.904;2022-09-13T16:06:06;22.50;99.90
11840;DHT22;5979;50.800;4.904;2022-09-13T16:08:34;22.50;99.90
11840;DHT22;5979;50.800;4.904;2022-09-13T16:11:00;22.50;99.90
11840;DHT22;5979;50.800;4.904;2022-09-13T16:13:26;22.50;99.90
11840;DHT22;5979;50.800;4.904;2022-09-13T16:15:51;22.40;99.90
11840;DHT22;5979;50.800;4.904;2022-09-13T16:18:17;22.40;99.90
11840;DHT22;5979;50.800;4.904;2022-09-13T16:20:43;22.30;99.90
11840;DHT22;5979;50.800;4.904;2022-09-13T16:23:10;22.30;99.90
11840;DHT22;5979;50.800;4.904;2022-09-13T16:25:36;22.30;99.90
11840;DHT22;5979;50.800;4.904;2022-09-13T16:28:03;22.20;99.90
11840;DHT22;5979;50.800;4.904;2022-09-13T16:30:29;22.20;99.90
11840;DHT22;5979;50.800;4.904;2022-09-13T16:32:56;22.20;99.90
11840;DHT22;5979;50.800;4.904;2022-09-13T16:35:25;22.20;99.90
11840;DHT22;5979;50.800;4.904;2022-09-13T16:37:52;22.20;99.90
11840;DHT22;5979;50.800;4.904;2022-09-13T16:40:19;22.20;99.90
11840;DHT22;5979;50.800;4.904;2022-09-13T16:42:45;22.20;99.90
11840;DHT22;5979;50.800;4.904;2022-09-13T16:45:11;22.20;99.90
11840;DHT22;5979;50.800;4.904;2022-09-13T16:47:37;22.20;99.90
11840;DHT22;5979;50.800;4.904;2022-09-13T16:50:04;22.10;99.90
11840;DHT22;5979;50.800;4.904;2022-09-13T16:52:32;22.10;99.90
11840;DHT22;5979;50.800;4.904;2022-09-13T16:54:58;22.10;99.90
11840;DHT22;5979;50.800;4.904;2022-09-13T16:57:24;22.10;99.90
11840;DHT22;5979;50.800;4.904;2022-09-13T16:59:51;22.00;99.90
11840;DHT22;5979;50.800;4.904;2022-09-13T17:02:19;22.00;99.90
11840;DHT22;5979;50.800;4.904;2022-09-13T17:04:45;21.90;99.90
11840;DHT22;5979;50.800;4.904;2022-09-13T17:07:11;21.90;99.90
11840;DHT22;5979;50.800;4.904;2022-09-13T17:09:38;21.80;99.90
11840;DHT22;5979;50.800;4.904;2022-09-13T17:12:09;21.80;99.90
11840;DHT22;5979;50.800;4.904;2022-09-13T17:14:36;21.70;99.90
11840;DHT22;5979;50.800;4.904;2022-09-13T17:17:02;21.60;99.90
11840;DHT22;5979;50.800;4.904;2022-09-13T17:19:30;21.50;99.90
11840;DHT22;5979;50.800;4.904;2022-09-13T17:22:01;21.50;99.90
11840;DHT22;5979;50.800;4.904;2022-09-13T17:24:28;21.40;99.90
11840;DHT22;5979;50.800;4.904;2022-09-13T17:26:55;21.30;99.90
11840;DHT22;5979;50.800;4.904;2022-09-13T17:29:22;21.20;99.90
11840;DHT22;5979;50.800;4.904;2022-09-13T17:31:52;21.10;99.90
11840;DHT22;5979;50.800;4.904;2022-09-13T17:34:18;21.00;99.90
11840;DHT22;5979;50.800;4.904;2022-09-13T17:36:44;21.00;99.90
11840;DHT22;5979;50.800;4.904;2022-09-13T17:39:10;21.00;99.90
11840;DHT22;5979;50.800;4.904;2022-09-13T17:41:36;20.90;99.90
11840;DHT22;5979;50.800;4.904;2022-09-13T17:44:02;20.90;99.90
11840;DHT22;5979;50.800;4.904;2022-09-13T17:46:28;20.90;99.90
11840;DHT22;5979;50.800;4.904;2022-09-13T17:48:56;20.80;99.90
11840;DHT22;5979;50.800;4.904;2022-09-13T17:51:26;20.90;99.90
11840;DHT22;5979;50.800;4.904;2022-09-13T17:53:54;20.80;99.90
11840;DHT22;5979;50.800;4.904;2022-09-13T17:56:23;20.70;99.90
11840;DHT22;5979;50.800;4.904;2022-09-13T17:58:54;20.70;99.90
11840;DHT22;5979;50.800;4.904;2022-09-13T18:01:20;20.60;99.90
11840;DHT22;5979;50.800;4.904;2022-09-13T18:03:46;20.60;99.90
11840;DHT22;5979;50.800;4.904;2022-09-13T18:06:12;20.50;99.90
11840;DHT22;5979;50.800;4.904;2022-09-13T18:08:39;20.50;99.90
11840;DHT22;5979;50.800;4.904;2022-09-13T18:11:08;20.40;99.90
11840;DHT22;5979;50.800;4.904;2022-09-13T18:13:35;20.40;99.90
11840;DHT22;5979;50.800;4.904;2022-09-13T18:16:06;20.40;99.90
11840;DHT22;5979;50.800;4.904;2022-09-13T18:18:34;20.30;99.90
11840;DHT22;5979;50.800;4.904;2022-09-13T18:21:00;20.30;99.90
11840;DHT22;5979;50.800;4.904;2022-09-13T18:23:26;20.30;99.90
11840;DHT22;5979;50.800;4.904;2022-09-13T18:26:04;20.30;99.90
11840;DHT22;5979;50.800;4.904;2022-09-13T18:28:32;20.30;99.90
11840;DHT22;5979;50.800;4.904;2022-09-13T18:30:59;20.20;99.90
11840;DHT22;5979;50.800;4.904;2022-09-13T18:33:26;20.20;99.90
11840;DHT22;5979;50.800;4.904;2022-09-13T18:35:57;20.20;99.90
11840;DHT22;5979;50.800;4.904;2022-09-13T18:38:22;20.10;99.90
11840;DHT22;5979;50.800;4.904;2022-09-13T18:41:01;20.10;99.90
11840;DHT22;5979;50.800;4.904;2022-09-13T18:43:26;20.10;99.90
11840;DHT22;5979;50.800;4.904;2022-09-13T18:46:00;20.10;99.90
11840;DHT22;5979;50.800;4.904;2022-09-13T18:48:30;20.10;99.90
11840;DHT22;5979;50.800;4.904;2022-09-13T18:50:57;20.10;99.90
11840;DHT22;5979;50.800;4.904;2022-09-13T18:53:23;20.00;99.90
11840;DHT22;5979;50.800;4.904;2022-09-13T18:55:49;20.00;99.90
11840;DHT22;5979;50.800;4.904;2022-09-13T18:58:15;20.00;99.90
11840;DHT22;5979;50.800;4.904;2022-09-13T19:00:40;20.00;99.90
11840;DHT22;5979;50.800;4.904;2022-09-13T19:03:08;20.00;99.90
11840;DHT22;5979;50.800;4.904;2022-09-13T19:05:34;20.00;99.90
11840;DHT22;5979;50.800;4.904;2022-09-13T19:08:06;20.00;99.90
11840;DHT22;5979;50.800;4.904;2022-09-13T19:10:32;19.90;99.90
11840;DHT22;5979;50.800;4.904;2022-09-13T19:12:59;20.00;99.90
11840;DHT22;5979;50.800;4.904;2022-09-13T19:15:25;19.90;99.90
11840;DHT22;5979;50.800;4.904;2022-09-13T19:17:50;19.90;99.90
11840;DHT22;5979;50.800;4.904;2022-09-13T19:20:16;19.80;99.90
11840;DHT22;5979;50.800;4.904;2022-09-13T19:22:44;19.80;99.90
11840;DHT22;5979;50.800;4.904;2022-09-13T19:25:10;19.70;99.90
11840;DHT22;5979;50.800;4.904;2022-09-13T19:27:35;19.70;99.90
11840;DHT22;5979;50.800;4.904;2022-09-13T19:30:01;19.70;99.90
11840;DHT22;5979;50.800;4.904;2022-09-13T19:32:27;19.70;99.90